Time;durP1;ratioP1;P1;durP2;ratioP2;P2;SDS_P1;SDS_P2;PMS_P1;PMS_P2;Temp;Humidity;BMP_temperature;BMP_pressure;BME280_temperature;BME280_humidity;BME280_pressure;Samples;Min_cycle;Max_cycle;Signal;HPM_P1;HPM_P2
2021/10/26 00:01:12;;;;;;;;;;;9.90;99.90;;;;;;5105204;28;20047;-75
2021/10/26 00:03:38;;;;;;;7.65;3.17;;;9.90;99.90;;;;;;5104587;28;19927;-74
2021/10/26 00:06:03;;;;;;;;;;;9.90;99.90;;;;;;5104184;28;20055;-75
2021/10/26 00:08:29;;;;;;;9.00;3.53;;;9.90;99.90;;;;;;5094829;28;19954;-74
2021/10/26 00:10:56;;;;;;;;;;;9.90;99.90;;;;;;5097247;28;20032;-77
2021/10/26 00:13:23;;;;;;;7.20;3.28;;;9.90;99.90;;;;;;5104292;28;20034;-75
2021/10/26 00:15:49;;;;;;;8.52;3.00;;;10.00;99.90;;;;;;5103590;28;20063;-75
2021/10/26 00:18:17;;;;;;;9.85;3.17;;;10.00;99.90;;;;;;5094110;28;20271;-77
2021/10/26 00:20:42;;;;;;;5.10;3.03;;;10.00;99.90;;;;;;5090300;28;20477;-76
2021/10/26 00:23:08;;;;;;;;;;;10.00;99.90;;;;;;5090781;28;20039;-76
2021/10/26 00:25:36;;;;;;;11.75;5.60;;;10.00;99.90;;;;;;5088346;28;19939;-76
2021/10/26 00:28:02;;;;;;;11.70;5.50;;;10.00;99.90;;;;;;5089768;28;20118;-76
2021/10/26 00:30:28;;;;;;;9.35;4.95;;;10.00;99.90;;;;;;5090209;28;20036;-74
2021/10/26 00:32:54;;;;;;;11.57;5.47;;;10.00;99.90;;;;;;5090653;28;20040;-77
2021/10/26 00:35:20;;;;;;;;;;;10.00;99.90;;;;;;5090281;28;20043;-77
2021/10/26 00:37:46;;;;;;;13.00;5.85;;;10.00;99.90;;;;;;5089145;28;20291;-76
2021/10/26 00:40:12;;;;;;;;;;;10.00;99.90;;;;;;5090023;28;20039;-75
2021/10/26 00:42:38;;;;;;;10.20;5.70;;;10.00;99.90;;;;;;5089984;28;20419;-75
2021/10/26 00:45:04;;;;;;;;;;;9.90;99.90;;;;;;5091010;28;20597;-77
2021/10/26 00:47:30;;;;;;;30.08;14.73;;;9.90;99.90;;;;;;5088813;28;19920;-74
2021/10/26 00:49:56;;;;;;;;;;;9.90;99.90;;;;;;5090256;28;20111;-76
2021/10/26 00:52:22;;;;;;;16.83;8.57;;;9.80;99.90;;;;;;5089678;28;19942;-75
2021/10/26 00:54:48;;;;;;;16.75;7.78;;;9.80;99.90;;;;;;5089929;28;20396;-75
2021/10/26 00:57:15;;;;;;;;;;;9.80;99.90;;;;;;5090658;28;20571;-73
2021/10/26 00:59:42;;;;;;;13.23;7.57;;;9.80;99.90;;;;;;5093916;28;20192;-76
2021/10/26 01:02:09;;;;;;;13.60;7.00;;;9.70;99.90;;;;;;5090268;28;20036;-76
2021/10/26 01:04:35;;;;;;;13.18;7.40;;;9.70;99.90;;;;;;5091212;28;20036;-77
2021/10/26 01:07:00;;;;;;;;;;;9.80;99.90;;;;;;5090337;28;20476;-76
2021/10/26 01:09:27;;;;;;;16.17;7.85;;;9.70;99.90;;;;;;5089647;28;20423;-74
2021/10/26 01:11:53;;;;;;;15.30;8.00;;;9.70;99.90;;;;;;5089763;28;20040;-76
2021/10/26 01:14:20;;;;;;;;;;;9.80;99.90;;;;;;5090167;28;20032;-75
2021/10/26 01:16:46;;;;;;;11.95;7.38;;;9.80;99.90;;;;;;5087980;28;19944;-76
2021/10/26 01:19:12;;;;;;;;;;;9.80;99.90;;;;;;5089291;28;20270;-75
2021/10/26 01:21:38;;;;;;;11.43;6.82;;;9.80;99.90;;;;;;5089298;28;19916;-76
2021/10/26 01:24:03;;;;;;;;;;;9.80;99.90;;;;;;5091328;28;20213;-74
2021/10/26 01:26:32;;;;;;;15.38;7.85;;;9.70;99.90;;;;;;5090276;28;19924;-75
2021/10/26 01:28:58;;;;;;;14.88;8.43;;;9.70;99.90;;;;;;5089828;28;20396;-75
2021/10/26 01:31:24;;;;;;;15.50;8.95;;;9.70;99.90;;;;;;5089676;28;20127;-77
2021/10/26 01:33:50;;;;;;;;;;;9.70;99.90;;;;;;5089161;28;20138;-73
2021/10/26 01:36:19;;;;;;;17.95;8.43;;;9.70;99.90;;;;;;5090047;28;19916;-73
2021/10/26 01:38:45;;;;;;;13.48;7.22;;;9.70;99.90;;;;;;5088815;28;20038;-74
2021/10/26 01:41:11;;;;;;;;;;;9.70;99.90;;;;;;5089679;28;20043;-76
2021/10/26 01:43:37;;;;;;;12.95;7.15;;;9.70;99.90;;;;;;5090035;28;19916;-74
2021/10/26 01:46:03;;;;;;;12.45;7.30;;;9.70;99.90;;;;;;5087983;28;20067;-76
2021/10/26 01:48:29;;;;;;;;;;;9.70;99.90;;;;;;5089433;28;20071;-74
2021/10/26 01:50:58;;;;;;;20.95;7.93;;;9.70;99.90;;;;;;5088969;28;19959;-76
2021/10/26 01:53:26;;;;;;;15.23;7.32;;;9.70;99.90;;;;;;5090129;28;20051;-76
2021/10/26 01:55:52;;;;;;;17.55;8.75;;;9.70;99.90;;;;;;5088573;28;20126;-75
2021/10/26 01:58:18;;;;;;;;;;;9.70;99.90;;;;;;5089231;28;20127;-75
2021/10/26 02:00:44;;;;;;;12.68;7.70;;;9.70;99.90;;;;;;5090200;28;19920;-77
2021/10/26 02:03:11;;;;;;;20.55;9.93;;;9.70;99.90;;;;;;5088874;28;20040;-75
2021/10/26 02:05:36;;;;;;;17.85;9.18;;;9.60;99.90;;;;;;5088634;28;20036;-77
2021/10/26 02:08:02;;;;;;;;;;;9.70;99.90;;;;;;5088308;28;20362;-77
2021/10/26 02:10:28;;;;;;;16.15;9.52;;;9.70;99.90;;;;;;5088265;28;19955;-74
2021/10/26 02:12:54;;;;;;;17.98;8.98;;;9.60;99.90;;;;;;5089831;28;20384;-74
2021/10/26 02:15:20;;;;;;;;;;;9.70;99.90;;;;;;5087995;28;20040;-75
2021/10/26 02:17:45;;;;;;;16.63;9.10;;;9.70;99.90;;;;;;5087575;28;19919;-75
2021/10/26 02:20:12;;;;;;;;;;;9.70;99.90;;;;;;5089552;28;20040;-76
2021/10/26 02:22:39;;;;;;;17.80;7.95;;;9.70;99.90;;;;;;5089107;28;20376;-76
2021/10/26 02:25:06;;;;;;;16.67;8.25;;;9.70;99.90;;;;;;5080526;28;20040;-74
2021/10/26 02:27:31;;;;;;;14.63;8.32;;;9.60;99.90;;;;;;5087812;28;20412;-75
2021/10/26 02:29:57;;;;;;;;;;;9.60;99.90;;;;;;5088329;28;20043;-77
2021/10/26 02:32:23;;;;;;;13.13;6.80;;;9.60;99.90;;;;;;5087194;28;20041;-77
2021/10/26 02:34:48;;;;;;;;;;;9.60;99.90;;;;;;5088562;28;20044;-75
2021/10/26 02:37:14;;;;;;;9.50;5.95;;;9.60;99.90;;;;;;5088973;28;19931;-77
2021/10/26 02:39:40;;;;;;;;;;;9.70;99.90;;;;;;5088174;28;20036;-75
2021/10/26 02:42:06;;;;;;;10.10;6.43;;;9.70;99.90;;;;;;5087623;28;19916;-76
2021/10/26 02:44:35;;;;;;;;;;;9.60;99.90;;;;;;5088312;28;20409;-77
2021/10/26 02:47:03;;;;;;;9.05;5.22;;;9.60;99.90;;;;;;5089919;28;19942;-75
2021/10/26 02:49:29;;;;;;;8.55;5.90;;;9.60;99.90;;;;;;5088501;28;20085;-75
2021/10/26 02:51:55;;;;;;;;;;;9.60;99.90;;;;;;5088089;28;20039;-76
2021/10/26 02:54:21;;;;;;;9.63;5.68;;;9.60;99.90;;;;;;5087584;28;19967;-74
2021/10/26 02:56:47;;;;;;;8.88;5.70;;;9.70;99.90;;;;;;5087920;28;20079;-76
2021/10/26 02:59:12;;;;;;;;;;;9.60;99.90;;;;;;5088164;28;20095;-76
2021/10/26 03:01:38;;;;;;;6.32;4.25;;;9.70;99.90;;;;;;5088470;28;19919;-76
2021/10/26 03:04:04;;;;;;;;;;;9.70;99.90;;;;;;5088097;28;20043;-75
2021/10/26 03:06:30;;;;;;;6.25;4.32;;;9.70;99.90;;;;;;5087313;28;20001;-76
2021/10/26 03:08:55;;;;;;;;;;;9.60;99.90;;;;;;5087174;28;20038;-75
2021/10/26 03:11:21;;;;;;;5.32;4.18;;;9.60;99.90;;;;;;5087337;28;20394;-76
2021/10/26 03:13:47;;;;;;;;;;;9.70;99.90;;;;;;5089164;28;20409;-75
2021/10/26 03:16:12;;;;;;;5.57;3.08;;;9.70;99.90;;;;;;5044252;23;19921;-67
2021/10/26 03:18:38;;;;;;;;;;;9.70;99.90;;;;;;5015225;28;20045;-66
2021/10/26 03:21:04;;;;;;;6.47;2.90;;;9.70;99.90;;;;;;5023176;28;19916;-65
2021/10/26 03:23:30;;;;;;;;;;;9.70;99.90;;;;;;5025943;28;20710;-66
2021/10/26 03:25:56;;;;;;;5.33;3.27;;;9.70;99.90;;;;;;5025234;28;19925;-65
2021/10/26 03:28:21;;;;;;;;;;;9.70;99.90;;;;;;5023136;28;20045;-65
2021/10/26 03:30:47;;;;;;;4.20;2.72;;;9.70;99.90;;;;;;5022349;28;20329;-69
2021/10/26 03:33:13;;;;;;;4.78;3.55;;;9.70;99.90;;;;;;5024846;28;20084;-68
2021/10/26 03:35:39;;;;;;;;;;;9.70;99.90;;;;;;5026395;28;20073;-71
2021/10/26 03:38:06;;;;;;;6.05;3.60;;;9.60;99.90;;;;;;5005535;28;19917;-67
2021/10/26 03:40:31;;;;;;;5.18;3.72;;;9.60;99.90;;;;;;4995123;28;20071;-67
2021/10/26 03:42:57;;;;;;;;;;;9.60;99.90;;;;;;5006062;28;20073;-69
2021/10/26 03:45:23;;;;;;;6.72;4.25;;;9.70;99.90;;;;;;5005745;28;19957;-65
2021/10/26 03:47:48;;;;;;;;;;;9.70;99.90;;;;;;5006286;28;20542;-63
2021/10/26 03:50:15;;;;;;;9.70;5.78;;;9.60;99.90;;;;;;5018703;28;19920;-65
2021/10/26 03:52:41;;;;;;;9.27;6.20;;;9.60;99.90;;;;;;5013371;28;20076;-64
2021/10/26 03:55:08;;;;;;;15.52;6.57;;;9.60;99.90;;;;;;5009837;28;20121;-65
2021/10/26 03:57:34;;;;;;;10.20;5.53;;;9.60;99.90;;;;;;5006993;28;20135;-65
2021/10/26 04:00:00;;;;;;;11.38;7.40;;;9.60;99.90;;;;;;5009782;28;20121;-65
2021/10/26 04:02:29;;;;;;;;;;;9.60;99.90;;;;;;5008956;28;20919;-64
2021/10/26 04:05:10;;;;;;;14.25;6.85;;;9.60;99.90;;;;;;5009919;28;19913;-64
2021/10/26 04:07:46;;;;;;;14.57;8.27;;;9.60;99.90;;;;;;5005305;28;20152;-66
2021/10/26 04:10:17;;;;;;;14.50;9.43;;;9.60;99.90;;;;;;4992412;28;20092;-63
2021/10/26 04:12:42;;;;;;;10.90;6.57;;;9.60;99.90;;;;;;5004997;28;20045;-64
2021/10/26 04:15:08;;;;;;;;;;;9.60;99.90;;;;;;5001750;28;20112;-64
2021/10/26 04:17:34;;;;;;;14.30;6.90;;;9.60;99.90;;;;;;5006513;28;19921;-63
2021/10/26 04:20:00;;;;;;;;;;;9.60;99.90;;;;;;5018173;28;20045;-64
2021/10/26 04:22:26;;;;;;;13.35;6.97;;;9.60;99.90;;;;;;5007192;28;20393;-64
2021/10/26 04:24:51;;;;;;;;;;;9.60;99.90;;;;;;5009186;28;20038;-64
2021/10/26 04:27:18;;;;;;;12.57;6.53;;;9.50;99.90;;;;;;5008113;28;19921;-65
2021/10/26 04:29:45;;;;;;;12.48;7.50;;;9.60;99.90;;;;;;5009130;28;20052;-64
2021/10/26 04:32:11;;;;;;;12.35;7.28;;;9.60;99.90;;;;;;5007634;28;20040;-65
2021/10/26 04:34:38;;;;;;;16.40;9.43;;;9.60;99.90;;;;;;5008636;28;20576;-66
2021/10/26 04:37:09;;;;;;;15.38;8.32;;;9.70;99.90;;;;;;5008212;28;20046;-66
2021/10/26 04:39:36;;;;;;;25.55;15.43;;;9.70;99.90;;;;;;4990342;28;20039;-66
2021/10/26 04:42:04;;;;;;;37.42;20.27;;;9.70;99.90;;;;;;5008035;28;20772;-66
2021/10/26 04:44:29;;;;;;;15.77;9.27;;;9.70;99.90;;;;;;5009135;28;20056;-66
2021/10/26 04:46:55;;;;;;;;;;;9.70;99.90;;;;;;5007021;28;20090;-65
2021/10/26 04:49:20;;;;;;;14.07;6.18;;;9.60;99.90;;;;;;5008120;28;19917;-64
2021/10/26 04:51:46;;;;;;;;;;;9.60;99.90;;;;;;5009130;28;20453;-64
2021/10/26 04:54:12;;;;;;;9.90;5.70;;;9.60;99.90;;;;;;5007448;28;19955;-67
2021/10/26 04:56:37;;;;;;;;;;;9.60;99.90;;;;;;5007846;28;20644;-64
2021/10/26 04:59:03;;;;;;;5.90;4.45;;;9.60;99.90;;;;;;5004773;28;19944;-63
2021/10/26 05:01:28;;;;;;;7.22;4.72;;;9.60;99.90;;;;;;5004720;28;20073;-62
2021/10/26 05:03:54;;;;;;;;;;;9.60;99.90;;;;;;4995539;28;20161;-67
2021/10/26 05:06:20;;;;;;;6.22;4.38;;;9.60;99.90;;;;;;4987640;28;19984;-66
2021/10/26 05:08:47;;;;;;;;;;;9.60;99.90;;;;;;5000685;28;20087;-65
2021/10/26 05:11:13;;;;;;;5.30;3.38;;;9.60;99.90;;;;;;5004403;28;20445;-65
2021/10/26 05:13:38;;;;;;;;;;;9.60;99.90;;;;;;5004903;28;20076;-64
2021/10/26 05:16:04;;;;;;;6.57;3.67;;;9.60;99.90;;;;;;5005114;28;19918;-64
2021/10/26 05:18:32;;;;;;;5.57;3.22;;;9.60;99.90;;;;;;5007592;28;20506;-65
2021/10/26 05:21:01;;;;;;;5.30;3.47;;;9.60;99.90;;;;;;5007855;28;20049;-64
2021/10/26 05:23:27;;;;;;;3.53;2.75;;;9.60;99.90;;;;;;5007302;28;20045;-64
2021/10/26 05:25:52;;;;;;;;;;;9.60;99.90;;;;;;5007077;28;20072;-64
2021/10/26 05:28:18;;;;;;;4.57;3.60;;;9.60;99.90;;;;;;5006661;28;19940;-64
2021/10/26 05:30:44;;;;;;;;;;;9.60;99.90;;;;;;5005114;28;20055;-63
2021/10/26 05:33:10;;;;;;;7.75;3.83;;;9.60;99.90;;;;;;5006350;28;19917;-67
2021/10/26 05:35:35;;;;;;;7.72;4.07;;;9.60;99.90;;;;;;5007978;28;20041;-67
2021/10/26 05:38:01;;;;;;;;;;;9.60;99.90;;;;;;5000209;28;20465;-64
2021/10/26 05:40:26;;;;;;;14.07;4.70;;;9.70;99.90;;;;;;4995593;28;19929;-64
2021/10/26 05:42:52;;;;;;;10.85;5.35;;;9.60;99.90;;;;;;5007175;28;20037;-67
2021/10/26 05:45:17;;;;;;;;;;;9.60;99.90;;;;;;5010117;28;20050;-65
2021/10/26 05:47:45;;;;;;;9.60;4.50;;;9.60;99.90;;;;;;5004330;28;20020;-67
2021/10/26 05:50:10;;;;;;;6.80;4.82;;;9.60;99.90;;;;;;5005151;28;20406;-66
2021/10/26 05:52:36;;;;;;;;;;;9.60;99.90;;;;;;5007315;28;20042;-65
2021/10/26 05:55:03;;;;;;;9.52;5.35;;;9.60;99.90;;;;;;5007551;28;19921;-65
2021/10/26 05:57:31;;;;;;;8.45;4.63;;;9.70;99.90;;;;;;5004286;28;20184;-65
2021/10/26 05:59:56;;;;;;;11.23;5.45;;;9.60;99.90;;;;;;5002816;28;20459;-67
2021/10/26 06:02:22;;;;;;;;;;;9.60;99.90;;;;;;5002404;28;20045;-65
2021/10/26 06:04:47;;;;;;;9.68;5.72;;;9.60;99.90;;;;;;5005072;28;19987;-65
2021/10/26 06:07:13;;;;;;;;;;;9.60;99.90;;;;;;4999618;28;20050;-65
2021/10/26 06:09:38;;;;;;;8.77;4.68;;;9.60;99.90;;;;;;5004342;28;19943;-66
2021/10/26 06:12:06;;;;;;;10.13;5.78;;;9.60;99.90;;;;;;4987749;28;20063;-66
2021/10/26 06:14:32;;;;;;;7.20;4.47;;;9.60;99.90;;;;;;4987657;28;20057;-64
2021/10/26 06:17:01;;;;;;;10.27;5.50;;;9.60;99.90;;;;;;4984848;28;20046;-64
2021/10/26 06:19:27;;;;;;;7.15;4.95;;;9.60;99.90;;;;;;4989242;28;20724;-67
2021/10/26 06:21:52;;;;;;;;;;;9.60;99.90;;;;;;4987498;28;20042;-67
2021/10/26 06:24:18;;;;;;;7.97;4.60;;;9.60;99.90;;;;;;4984431;28;19942;-66
2021/10/26 06:26:44;;;;;;;;;;;9.60;99.90;;;;;;4988006;28;20057;-65
2021/10/26 06:29:09;;;;;;;6.00;4.00;;;9.60;99.90;;;;;;4988284;28;19917;-65
2021/10/26 06:31:35;;;;;;;;;;;9.60;99.90;;;;;;4986185;28;20104;-64
2021/10/26 06:34:01;;;;;;;8.95;5.20;;;9.60;99.90;;;;;;5004051;28;19928;-64
2021/10/26 06:36:27;;;;;;;;;;;9.60;99.90;;;;;;5006733;28;20081;-65
2021/10/26 06:38:52;;;;;;;8.30;5.65;;;9.60;99.90;;;;;;4994508;28;19968;-65
2021/10/26 06:41:19;;;;;;;;;;;9.60;99.90;;;;;;5003541;28;20092;-65
2021/10/26 06:43:44;;;;;;;13.65;5.68;;;9.60;99.90;;;;;;5007731;28;20397;-65
2021/10/26 06:46:10;;;;;;;;;;;9.60;99.90;;;;;;5005036;28;20077;-65
2021/10/26 06:48:36;;;;;;;9.43;5.47;;;9.60;99.90;;;;;;5004781;28;19925;-65
2021/10/26 06:51:01;;;;;;;;;;;9.60;99.90;;;;;;5006502;28;20049;-65
2021/10/26 06:53:27;;;;;;;6.53;4.20;;;9.60;99.90;;;;;;5006577;28;19917;-65
2021/10/26 06:55:53;;;;;;;;;;;9.70;99.90;;;;;;5004363;28;20042;-65
2021/10/26 06:58:19;;;;;;;10.97;4.93;;;9.60;99.90;;;;;;4994529;28;20308;-64
2021/10/26 07:00:45;;;;;;;;;;;9.60;99.90;;;;;;4992055;28;20270;-65
2021/10/26 07:03:10;;;;;;;10.88;4.78;;;9.60;99.90;;;;;;4991608;28;20380;-64
2021/10/26 07:05:37;;;;;;;;;;;9.70;99.90;;;;;;5002346;28;20429;-64
2021/10/26 07:08:04;;;;;;;7.78;3.95;;;9.60;99.90;;;;;;4998078;28;19973;-65
2021/10/26 07:10:29;;;;;;;7.85;5.18;;;9.70;99.90;;;;;;4992118;28;20140;-65
2021/10/26 07:12:55;;;;;;;;;;;9.70;99.90;;;;;;5005161;28;20133;-65
2021/10/26 07:15:21;;;;;;;10.85;5.50;;;9.70;99.90;;;;;;5003067;28;19944;-64
2021/10/26 07:17:47;;;;;;;7.70;5.05;;;9.70;99.90;;;;;;5003779;28;20050;-64
2021/10/26 07:20:14;;;;;;;;;;;9.70;99.90;;;;;;5003142;28;20049;-63
2021/10/26 07:22:41;;;;;;;11.52;5.88;;;9.70;99.90;;;;;;5002524;28;19987;-65
2021/10/26 07:25:09;;;;;;;9.07;4.57;;;9.70;99.90;;;;;;5004495;28;20117;-65
2021/10/26 07:27:36;;;;;;;11.43;6.25;;;9.80;99.90;;;;;;5005260;28;20141;-64
2021/10/26 07:30:05;;;;;;;11.80;7.28;;;9.80;99.90;;;;;;5010330;28;20042;-64
2021/10/26 07:32:31;;;;;;;12.40;6.57;;;9.80;99.90;;;;;;5008374;28;20046;-64
2021/10/26 07:34:56;;;;;;;;;;;9.80;99.90;;;;;;5010590;28;20088;-68
2021/10/26 07:37:26;;;;;;;10.75;5.93;;;9.80;99.90;;;;;;5007601;28;20008;-68
2021/10/26 07:39:52;;;;;;;12.10;6.75;;;9.70;99.90;;;;;;4996841;28;20046;-66
2021/10/26 07:42:19;;;;;;;;;;;9.80;99.90;;;;;;4989514;28;20049;-67
2021/10/26 07:44:50;;;;;;;12.68;6.78;;;9.70;99.90;;;;;;4991279;28;19922;-65
2021/10/26 07:47:16;;;;;;;16.30;6.45;;;9.70;99.90;;;;;;4998535;28;20046;-67
2021/10/26 07:49:44;;;;;;;10.77;6.82;;;9.70;99.90;;;;;;4997863;28;20133;-65
2021/10/26 07:52:10;;;;;;;9.38;6.18;;;9.70;99.90;;;;;;5008085;28;20034;-65
2021/10/26 07:54:36;;;;;;;11.05;7.05;;;9.70;99.90;;;;;;5006187;28;20049;-66
2021/10/26 07:57:03;;;;;;;;;;;9.60;99.90;;;;;;5007470;28;20061;-68
2021/10/26 07:59:29;;;;;;;11.23;6.55;;;9.60;99.90;;;;;;5012526;28;20397;-66
2021/10/26 08:01:54;;;;;;;11.68;7.80;;;9.70;99.90;;;;;;5019768;28;20030;-67
2021/10/26 08:04:20;;;;;;;;;;;9.70;99.90;;;;;;4997597;28;20041;-66
2021/10/26 08:06:46;;;;;;;11.40;6.68;;;9.80;99.90;;;;;;4997490;28;19925;-67
2021/10/26 08:09:17;;;;;;;12.43;7.32;;;9.80;99.90;;;;;;4993639;28;20848;-65
2021/10/26 08:11:43;;;;;;;14.48;7.75;;;9.70;99.90;;;;;;5009439;28;20511;-66
2021/10/26 08:14:09;;;;;;;9.90;6.97;;;9.80;99.90;;;;;;5011282;28;20062;-67
2021/10/26 08:16:35;;;;;;;11.52;7.10;;;9.80;99.90;;;;;;5008541;28;20041;-64
2021/10/26 08:19:02;;;;;;;;;;;9.90;99.90;;;;;;5009048;28;20041;-66
2021/10/26 08:21:27;;;;;;;12.00;6.00;;;9.90;99.90;;;;;;5006705;28;20392;-66
2021/10/26 08:23:54;;;;;;;;;;;9.90;99.90;;;;;;5006501;28;20284;-67
2021/10/26 08:26:24;;;;;;;8.27;5.63;;;9.90;99.90;;;;;;5004039;28;19921;-65
2021/10/26 08:28:55;;;;;;;10.02;5.80;;;9.80;99.90;;;;;;4987698;28;20074;-65
2021/10/26 08:31:29;;;;;;;10.10;6.15;;;9.90;99.90;;;;;;4985854;28;20066;-64
2021/10/26 08:36:38;;;;;;;9.30;6.28;;;10.10;99.90;;;;;;4988319;28;20422;-67
2021/10/26 08:39:05;;;;;;;;;;;10.20;99.90;;;;;;4992189;28;20030;-67
2021/10/26 08:41:33;;;;;;;11.68;6.72;;;10.10;99.90;;;;;;4993560;28;19984;-67
2021/10/26 08:43:59;;;;;;;11.43;6.75;;;10.10;99.90;;;;;;4989044;28;20046;-67
2021/10/26 08:46:25;;;;;;;;;;;10.10;99.90;;;;;;4987799;28;20048;-67
2021/10/26 08:48:51;;;;;;;10.13;6.15;;;10.10;99.90;;;;;;4999536;28;19917;-67
2021/10/26 08:51:18;;;;;;;12.70;6.25;;;10.10;99.90;;;;;;5004147;28;20104;-66
2021/10/26 08:53:45;;;;;;;13.90;6.80;;;10.10;99.90;;;;;;5008891;28;20046;-66
2021/10/26 08:56:11;;;;;;;20.27;7.40;;;10.10;99.90;;;;;;5005016;28;20045;-66
2021/10/26 08:58:36;;;;;;;12.63;7.13;;;10.10;99.90;;;;;;5005829;28;20482;-65
2021/10/26 09:01:03;;;;;;;;;;;10.10;99.90;;;;;;5009438;28;20045;-67
2021/10/26 09:03:34;;;;;;;15.15;8.15;;;10.20;99.90;;;;;;4998799;28;20008;-65
2021/10/26 09:06:01;;;;;;;16.55;7.68;;;10.40;99.90;;;;;;4987525;28;20054;-67
2021/10/26 09:08:27;;;;;;;15.13;8.00;;;10.50;99.90;;;;;;4996254;28;20128;-67
2021/10/26 09:10:55;;;;;;;11.55;6.97;;;10.50;99.90;;;;;;4996438;28;20042;-67
2021/10/26 09:19:19;;;;;;;16.02;7.60;;;10.50;99.90;;;;;;4988885;28;20084;-67
2021/10/26 09:21:58;;;;;;;28.33;13.57;;;10.50;99.90;;;;;;4988277;28;20038;-67
2021/10/26 09:24:25;;;;;;;13.95;7.38;;;10.50;99.90;;;;;;4988595;28;20042;-66
2021/10/26 09:26:56;;;;;;;16.58;8.88;;;10.50;99.90;;;;;;4986783;28;20094;-66
2021/10/26 09:29:39;;;;;;;12.63;5.88;;;10.60;99.90;;;;;;4986319;28;20461;-66
2021/10/26 09:32:06;;;;;;;9.75;6.25;;;10.70;99.90;;;;;;4987309;28;20046;-66
2021/10/26 09:34:44;;;;;;;9.40;6.10;;;10.70;99.90;;;;;;4988436;28;20133;-67
2021/10/26 09:37:11;;;;;;;10.45;6.05;;;10.70;99.90;;;;;;4987363;28;20077;-67
2021/10/26 09:39:37;;;;;;;9.85;5.82;;;10.70;99.90;;;;;;5004410;28;20061;-66
2021/10/26 09:42:05;;;;;;;;;;;10.70;99.90;;;;;;5003436;28;20038;-66
2021/10/26 09:44:38;;;;;;;9.65;6.15;;;10.70;99.90;;;;;;5010350;28;19921;-66
2021/10/26 09:47:21;;;;;;;15.30;6.20;;;10.80;99.90;;;;;;5005439;28;20077;-66
2021/10/26 09:49:59;;;;;;;9.82;6.05;;;10.80;99.90;;;;;;4985280;28;20064;-66
2021/10/26 09:52:47;;;;;;;10.43;5.95;;;10.90;99.90;;;;;;4997894;28;20077;-66
2021/10/26 09:55:21;;;;;;;10.77;5.65;;;10.90;99.90;;;;;;5007643;28;20138;-66
2021/10/26 09:57:59;;;;;;;10.20;5.95;;;11.10;99.90;;;;;;5007062;28;20042;-67
2021/10/26 10:00:28;;;;;;;13.63;5.82;;;11.10;99.90;;;;;;5007788;28;20050;-66
2021/10/26 10:03:06;;;;;;;10.13;5.82;;;11.20;99.90;;;;;;5014559;28;20052;-66
2021/10/26 10:05:36;;;;;;;11.25;6.20;;;11.20;99.90;;;;;;5007847;28;20081;-66
2021/10/26 10:08:20;;;;;;;8.85;5.72;;;11.20;99.90;;;;;;5000430;28;20046;-66
2021/10/26 10:10:47;;;;;;;8.25;5.45;;;11.10;99.90;;;;;;4999574;28;20088;-66
2021/10/26 10:13:13;;;;;;;9.90;5.95;;;11.10;99.90;;;;;;5007208;28;20116;-66
2021/10/26 10:15:42;;;;;;;;;;;11.10;99.90;;;;;;5006851;28;20117;-66
2021/10/26 10:18:08;;;;;;;11.18;4.70;;;11.20;99.90;;;;;;5002571;28;19917;-66
2021/10/26 10:20:34;;;;;;;;;;;11.20;99.90;;;;;;5005956;28;20042;-67
2021/10/26 10:23:00;;;;;;;8.15;4.60;;;11.20;99.90;;;;;;5006633;28;19917;-67
2021/10/26 10:25:27;;;;;;;11.00;4.57;;;11.40;99.90;;;;;;5006016;28;20033;-66
2021/10/26 10:27:56;;;;;;;25.42;4.18;;;11.60;99.90;;;;;;5006928;28;20505;-68
2021/10/26 10:30:22;;;;;;;6.63;4.40;;;11.80;99.90;;;;;;5006700;28;20074;-67
2021/10/26 10:32:47;;;;;;;;;;;12.00;99.90;;;;;;5007337;28;20127;-66
2021/10/26 10:35:16;;;;;;;6.25;3.40;;;12.10;99.90;;;;;;5007147;28;19917;-66
2021/10/26 10:37:43;;;;;;;9.52;3.80;;;12.10;99.90;;;;;;5001978;28;20045;-67
2021/10/26 10:40:10;;;;;;;9.18;3.80;;;12.20;99.90;;;;;;4992088;28;20037;-66
2021/10/26 10:42:48;;;;;;;6.00;3.88;;;12.40;99.90;;;;;;4986106;28;20072;-66
2021/10/26 10:45:26;;;;;;;8.43;4.13;;;12.50;99.90;;;;;;4987387;28;20584;-67
2021/10/26 10:47:55;;;;;;;7.78;4.50;;;12.60;99.90;;;;;;4987713;28;20394;-66
2021/10/26 10:50:23;;;;;;;10.30;4.80;;;12.30;99.90;;;;;;5005689;28;20084;-67
2021/10/26 10:53:04;;;;;;;11.75;6.05;;;12.20;99.90;;;;;;5006142;28;20041;-66
2021/10/26 10:55:31;;;;;;;8.80;5.07;;;12.20;99.90;;;;;;5003118;28;20769;-66
2021/10/26 10:58:16;;;;;;;8.93;5.20;;;12.00;99.90;;;;;;4985187;28;20046;-66
2021/10/26 11:00:42;;;;;;;11.43;5.60;;;12.10;99.90;;;;;;5007626;28;20045;-67
2021/10/26 11:03:27;;;;;;;;;;;12.20;99.90;;;;;;5005908;28;20034;-66
2021/10/26 11:05:53;;;;;;;9.82;4.57;;;12.30;99.90;;;;;;5005405;28;19924;-66
2021/10/26 11:08:46;;;;;;;9.85;4.47;;;12.20;99.90;;;;;;5005337;28;20038;-66
2021/10/26 11:11:12;;;;;;;8.95;6.20;;;12.20;99.90;;;;;;4987116;28;20042;-67
2021/10/26 11:13:38;;;;;;;15.45;8.50;;;12.30;99.90;;;;;;4986761;28;20081;-65
2021/10/26 11:16:06;;;;;;;;;;;12.40;99.90;;;;;;4985421;28;20069;-64
2021/10/26 11:18:46;;;;;;;14.20;4.97;;;12.40;99.90;;;;;;4984376;28;19922;-64
2021/10/26 11:21:21;;;;;;;13.93;8.45;;;12.20;99.90;;;;;;4989254;28;20040;-67
2021/10/26 11:23:48;;;;;;;13.13;5.35;;;12.00;99.90;;;;;;5006127;28;20033;-66
2021/10/26 11:26:40;;;;;;;14.15;5.65;;;11.90;99.90;;;;;;5006801;28;20042;-66
2021/10/26 11:29:08;;;;;;;9.32;4.97;;;11.70;99.90;;;;;;4993488;28;20034;-66
2021/10/26 11:31:52;;;;;;;12.70;5.10;;;11.60;99.90;;;;;;4993850;28;20510;-65
2021/10/26 11:34:22;;;;;;;14.75;4.50;;;11.70;99.90;;;;;;4995470;28;20109;-66
2021/10/26 11:37:02;;;;;;;7.43;3.83;;;11.70;99.90;;;;;;4996935;28;20073;-67
2021/10/26 11:39:29;;;;;;;7.28;3.63;;;11.80;99.90;;;;;;5004460;28;20038;-65
2021/10/26 11:41:59;;;;;;;11.00;3.83;;;11.90;99.90;;;;;;5009529;28;20034;-65
2021/10/26 11:44:25;;;;;;;8.07;2.88;;;11.90;99.90;;;;;;5015897;28;20053;-66
2021/10/26 11:46:52;;;;;;;6.75;3.10;;;11.90;99.90;;;;;;5002758;28;20042;-66
2021/10/26 11:49:26;;;;;;;12.07;3.20;;;11.90;99.90;;;;;;5006185;28;20065;-66
2021/10/26 11:51:54;;;;;;;4.63;3.13;;;12.00;99.90;;;;;;5006837;28;20069;-62
2021/10/26 11:54:21;;;;;;;8.15;3.47;;;12.00;99.90;;;;;;5008162;28;20048;-64
2021/10/26 11:56:54;;;;;;;10.65;2.95;;;12.20;99.90;;;;;;5006704;28;20050;-65
2021/10/26 11:59:26;;;;;;;8.98;2.80;;;12.30;99.90;;;;;;5004944;28;20130;-66
2021/10/26 12:02:03;;;;;;;11.15;3.30;;;12.30;99.90;;;;;;5020214;28;20056;-70
2021/10/26 12:04:38;;;;;;;7.15;3.15;;;12.10;99.90;;;;;;4999751;28;20034;-65
2021/10/26 12:07:11;;;;;;;7.57;2.50;;;12.20;99.90;;;;;;4988368;28;20060;-71
2021/10/26 12:09:47;;;;;;;7.75;2.65;;;12.20;99.90;;;;;;4988951;28;20132;-64
2021/10/26 12:12:15;;;;;;;6.32;2.30;;;12.20;99.90;;;;;;5005319;28;20045;-62
2021/10/26 12:14:43;;;;;;;9.98;3.78;;;12.10;99.90;;;;;;5007302;28;20053;-65
2021/10/26 12:17:29;;;;;;;10.75;3.97;;;12.00;99.90;;;;;;5007255;28;20391;-64
2021/10/26 12:20:06;;;;;;;6.97;2.10;;;12.00;99.90;;;;;;5009306;28;20121;-66
2021/10/26 12:22:43;;;;;;;6.55;2.50;;;12.00;99.90;;;;;;5008742;28;20061;-66
2021/10/26 12:25:31;;;;;;;6.15;2.33;;;12.00;99.90;;;;;;5009885;28;20046;-66
2021/10/26 12:28:04;;;;;;;3.05;2.08;;;12.00;99.90;;;;;;5006290;28;20502;-66
2021/10/26 12:30:32;;;;;;;10.07;4.28;;;12.00;99.90;;;;;;5007012;28;20506;-66
2021/10/26 12:33:04;;;;;;;6.93;2.33;;;12.00;99.90;;;;;;5009008;28;20049;-65
2021/10/26 12:35:42;;;;;;;7.00;2.72;;;11.90;99.90;;;;;;5009023;28;20092;-65
2021/10/26 12:38:27;;;;;;;6.22;1.98;;;11.90;99.90;;;;;;5006060;28;20042;-65
2021/10/26 12:41:20;;;;;;;5.97;1.60;;;12.00;99.90;;;;;;4999126;28;20088;-66
2021/10/26 12:43:57;;;;;;;7.55;1.50;;;11.90;99.90;;;;;;5006348;28;20134;-65
2021/10/26 12:46:25;;;;;;;3.67;1.55;;;11.90;99.90;;;;;;5006706;28;20536;-64
2021/10/26 12:49:02;;;;;;;5.10;2.70;;;11.80;99.90;;;;;;5006388;28;20580;-65
2021/10/26 12:51:28;;;;;;;7.43;2.03;;;11.90;99.90;;;;;;5008144;28;20034;-65
2021/10/26 12:53:54;;;;;;;6.72;1.80;;;11.70;99.90;;;;;;5009579;28;20068;-65
2021/10/26 12:56:26;;;;;;;;;;;11.70;99.90;;;;;;5012178;28;21020;-63
2021/10/26 12:58:54;;;;;;;5.78;1.13;;;11.60;99.90;;;;;;5009946;28;19936;-64
2021/10/26 13:01:39;;;;;;;3.65;1.55;;;11.70;99.90;;;;;;5006482;28;20038;-65
2021/10/26 13:04:21;;;;;;;5.68;1.42;;;11.70;99.90;;;;;;4995326;28;20655;-65
2021/10/26 13:06:54;;;;;;;5.03;1.45;;;11.70;99.90;;;;;;4991518;28;20434;-65
2021/10/26 13:09:33;;;;;;;5.15;1.33;;;11.80;99.90;;;;;;5000749;28;20108;-65
2021/10/26 13:12:39;;;;;;;9.65;2.05;;;11.80;99.90;;;;;;5007568;28;20034;-65
2021/10/26 13:15:11;;;;;;;6.80;1.70;;;11.80;99.90;;;;;;5007940;28;20065;-65
2021/10/26 13:17:44;;;;;;;4.70;1.13;;;11.80;99.90;;;;;;5005489;28;20052;-64
2021/10/26 13:20:32;;;;;;;8.45;1.83;;;11.90;99.90;;;;;;5007916;28;20042;-64
2021/10/26 13:23:11;;;;;;;7.85;1.92;;;11.90;99.90;;;;;;5007761;28;20046;-64
2021/10/26 13:25:47;;;;;;;6.72;1.70;;;11.80;99.90;;;;;;5008121;28;20669;-64